createdAt,value
2018-11-27T00:02:26.005Z,92.60
2018-11-27T00:07:29.953Z,92.60
2018-11-27T00:12:36.722Z,92.60
2018-11-27T00:15:12.025Z,92.50
2018-11-27T00:17:44.204Z,92.50
2018-11-27T00:22:44.115Z,92.50
2018-11-27T00:27:46.146Z,92.50
2018-11-27T00:30:20.767Z,92.50
2018-11-27T00:32:52.823Z,92.50
2018-11-27T00:37:54.892Z,92.40
2018-11-27T00:45:29.198Z,92.40
2018-11-27T00:47:59.781Z,92.40
2018-11-27T00:50:33.245Z,92.40
2018-11-27T00:53:06.649Z,92.40
2018-11-27T00:55:40.886Z,92.40
2018-11-27T00:58:12.899Z,92.40
2018-11-27T01:03:16.677Z,92.40
2018-11-27T01:08:17.020Z,92.30
2018-11-27T01:10:50.234Z,92.40
2018-11-27T01:13:20.173Z,92.40
2018-11-27T01:18:22.531Z,92.30
2018-11-27T01:23:22.328Z,92.30
2018-11-27T01:28:23.887Z,92.30
2018-11-27T01:30:58.229Z,92.30
2018-11-27T01:33:27.733Z,92.30
2018-11-27T01:38:29.516Z,92.30
2018-11-27T01:41:02.628Z,92.30
2018-11-27T01:43:34.130Z,92.40
2018-11-27T01:46:10.520Z,92.30
2018-11-27T01:48:42.964Z,92.30
2018-11-27T01:51:17.294Z,92.30
2018-11-27T01:53:49.725Z,92.30
2018-11-27T01:58:53.267Z,92.30
2018-11-27T02:03:53.437Z,92.30
2018-11-27T02:08:55.831Z,92.20
2018-11-27T02:13:57.833Z,92.20
2018-11-27T02:18:57.409Z,92.20
2018-11-27T02:23:59.563Z,92.20
2018-11-27T02:28:59.909Z,92.20
2018-11-27T02:33:59.631Z,92.20
2018-11-27T02:39:00.538Z,92.20
2018-11-27T02:43:59.653Z,92.20
2018-11-27T02:46:40.042Z,92.20
2018-11-27T02:49:11.178Z,92.20
2018-11-27T02:54:11.978Z,92.20
2018-11-27T02:56:46.078Z,92.20
2018-11-27T02:59:17.747Z,92.20
2018-11-27T03:04:19.247Z,92.20
2018-11-27T03:09:19.077Z,92.10
2018-11-27T03:14:17.807Z,92.10
2018-11-27T03:16:50.685Z,92.10
2018-11-27T03:21:55.790Z,92.10
2018-11-27T03:24:26.101Z,92.10
2018-11-27T03:26:59.614Z,92.10
2018-11-27T03:29:31.254Z,92.10
2018-11-27T03:34:32.471Z,92.10
2018-11-27T03:39:34.399Z,92.10
2018-11-27T03:44:34.511Z,92.10
2018-11-27T03:49:54.513Z,92.10
2018-11-27T03:54:53.591Z,92.10
2018-11-27T03:57:26.085Z,92.10
2018-11-27T03:59:59.547Z,92.10
2018-11-27T04:07:34.658Z,92.10
2018-11-27T04:12:35.099Z,92.10
2018-11-27T04:15:06.926Z,92.10
2018-11-27T04:17:44.208Z,92.10
2018-11-27T04:20:15.611Z,92.10
2018-11-27T04:25:16.290Z,92.10
2018-11-27T04:30:15.972Z,92.10
2018-11-27T04:32:49.270Z,92.10
2018-11-27T04:35:20.666Z,92.10
2018-11-27T04:40:39.410Z,92.10
2018-11-27T04:45:42.060Z,92.20
2018-11-27T04:50:42.633Z,92.10
2018-11-27T04:53:16.144Z,92.10
2018-11-27T04:55:48.568Z,92.10
2018-11-27T05:00:51.184Z,92.10
2018-11-27T05:05:51.740Z,92.10
2018-11-27T05:10:50.074Z,92.10
2018-11-27T05:18:21.873Z,92.00
2018-11-27T05:20:55.266Z,92.10
2018-11-27T05:25:56.369Z,92.10
2018-11-27T05:30:58.626Z,92.10
2018-11-27T05:36:01.825Z,92.10
2018-11-27T05:43:32.775Z,92.00
2018-11-27T05:46:11.454Z,92.00
2018-11-27T05:51:11.646Z,92.00
2018-11-27T05:53:43.914Z,92.00
2018-11-27T05:56:16.131Z,92.00
2018-11-27T06:01:18.593Z,91.90
2018-11-27T06:03:52.997Z,91.90
2018-11-27T06:06:23.243Z,91.90
2018-11-27T06:08:56.998Z,91.90
2018-11-27T06:11:27.571Z,91.90
2018-11-27T06:16:28.191Z,91.90
2018-11-27T06:18:59.877Z,91.90
2018-11-27T06:21:31.606Z,91.80
2018-11-27T06:29:02.105Z,91.80
2018-11-27T06:34:03.298Z,91.80
2018-11-27T06:36:36.764Z,91.80
2018-11-27T06:39:11.663Z,91.80
2018-11-27T06:44:12.251Z,91.80
2018-11-27T06:49:15.371Z,91.70
2018-11-27T06:54:16.525Z,91.70
2018-11-27T06:59:19.920Z,91.70
2018-11-27T07:04:20.263Z,91.70
2018-11-27T07:06:54.327Z,91.70
2018-11-27T07:09:29.839Z,91.70
2018-11-27T07:12:02.923Z,91.70
2018-11-27T07:14:35.880Z,91.70
2018-11-27T07:17:06.861Z,91.70
2018-11-27T07:19:40.319Z,91.70
2018-11-27T07:22:11.747Z,91.70
2018-11-27T07:27:13.473Z,91.70
2018-11-27T07:32:16.208Z,91.60
2018-11-27T07:42:17.749Z,91.60
2018-11-27T07:44:51.949Z,91.60
2018-11-27T07:47:25.669Z,91.60
2018-11-27T07:52:30.592Z,91.60
2018-11-27T07:57:35.099Z,91.60
2018-11-27T08:00:02.982Z,91.50
2018-11-27T08:02:35.893Z,91.50
2018-11-27T08:05:04.471Z,91.60
2018-11-27T08:07:38.082Z,91.50
2018-11-27T08:10:08.445Z,91.50
2018-11-27T08:15:10.452Z,91.50
2018-11-27T08:17:44.409Z,91.50
2018-11-27T08:20:15.624Z,91.50
2018-11-27T08:25:19.049Z,91.60
2018-11-27T08:27:51.983Z,91.60
2018-11-27T08:30:21.267Z,91.60
2018-11-27T08:35:24.315Z,91.60
2018-11-27T08:40:26.143Z,91.60
2018-11-27T08:45:26.511Z,91.60
2018-11-27T08:50:28.894Z,91.60
